METAR - Ísland

Uppfært síðast 09.02.2023 - kl. 13:11

SIGMET síðustu 6 klst.

Engin SIGMET skeyti bárust síðustu 6 klst.

METAR síðustu 3 klst

Frá og með 1. október munu brautarskilyrði ekki birtast í METAR skeytum.
Í staðinn mun ISAVIA gefa út SNOWTAM á síðunni SNOWTAM | Isavia.

Flugv.TímiSkeyti
BIAR2023-02-09 13.00METAR BIAR 091300Z 16014KT 9999 FEW050 M06/M11 Q1009
BIAR2023-02-09 12.00METAR BIAR 091200Z 13006KT 080V180 CAVOK M04/M12 Q1008
BIAR2023-02-09 11.00METAR BIAR 091100Z VRB02KT 9999 FEW020 SCT050 M06/M13 Q1007
BIBD2023-02-09 13.00METAR BIBD 091300Z 21009KT 9999 FEW020 BKN032 M04/M10 Q1007
BIBD2023-02-09 12.00METAR BIBD 091200Z 33002KT 9999 FEW022 BKN032 M06/M13 Q1008
BIBD2023-02-09 11.00METAR BIBD 091100Z 21003KT 9999 SCT030 M07/M14 Q1008
BIEG2023-02-09 13.00METAR BIEG 091300Z 20010KT 9999 FEW050 M04/M11 Q1009
BIEG2023-02-09 12.00METAR BIEG 091200Z 22011KT 9999 BKN042 M04/M12 Q1008
BIEG2023-02-09 11.00METAR BIEG 091100Z 22015KT 9999 BKN039 M04/M11 Q1007
BIGR2023-02-09 12.00METAR BIGR 091200Z 26022G32KT 9999 DRSN FEW040 BKN045 M03/M10 Q1006
BIHN2023-02-09 13.00METAR BIHN 091300Z 33004KT CAVOK M03/M13 Q1010
BIHN2023-02-09 12.00METAR BIHN 091200Z 30008KT CAVOK M03/M14 Q1009
BIHN2023-02-09 11.00METAR BIHN 091100Z 32013KT CAVOK M04/M13 Q1008
BIHU2023-02-09 12.00METAR BIHU 091200Z 18005KT 9999 FEW027 M06/M10 Q1007
BIIS2023-02-09 13.00METAR BIIS 091300Z 21011KT 9999 BKN040 07/// Q1006
BIIS2023-02-09 12.00METAR BIIS 091200Z 22010KT 9999 FEW040 07/// Q1007
BIIS2023-02-09 10.50METAR BIIS 091050Z 18008KT 9999 FEW040 07/// Q1007
BIKF2023-02-09 13.00METAR BIKF 091300Z 14008KT 9999 BKN039 M04/M10 Q1010
BIKF2023-02-09 12.30METAR BIKF 091230Z 14008KT 9999 BKN039 BKN280 M04/M10 Q1010
BIKF2023-02-09 12.00METAR BIKF 091200Z 15009KT 9999 FEW037 BKN280 M05/M10 Q1010
BIKF2023-02-09 11.30METAR BIKF 091130Z 15007KT 9999 SCT037 BKN280 M06/M11 Q1010
BIKF2023-02-09 11.00METAR BIKF 091100Z 18005KT 9999 SCT039 BKN280 M04/M10 Q1010
BIKF2023-02-09 10.30METAR BIKF 091030Z 23005KT 9999 SCT039 BKN280 M05/M11 Q1010
BIRK2023-02-09 13.00METAR BIRK 091300Z 11005KT 9999 FEW040 M04/M10 Q1011
BIRK2023-02-09 12.00METAR BIRK 091200Z 11004KT 9999 FEW040 M04/M11 Q1011
BIRK2023-02-09 11.00METAR BIRK 091100Z 10005KT 080V150 9999 FEW025 BKN043 M05/M10 Q1011
BITN2023-02-09 12.00METAR BITN 091200Z 22010KT 9999 VCSH SCT010 BKN030 M05/M07 Q1006
BITN2023-02-09 11.00METAR BITN 091100Z 29012KT 9999 VCSH FEW010 BKN030 M04/M07 Q1006
BIVM2023-02-09 13.00METAR BIVM 091300Z 09003KT 9999 FEW030 M03/M09 Q1012
BIVM2023-02-09 12.00METAR BIVM 091200Z 04005KT 9999 FEW030 M04/M09 Q1011
BIVM2023-02-09 11.00METAR BIVM 091100Z 04007KT 9999 SCT030 M05/M09 Q1011
BIVO2023-02-09 11.00METAR BIVO 091100Z 21015KT 9999 SCT045 M06/M10 Q1007
BIVO2023-02-09 10.50METAR BIVO 091050Z 21015KT 9999 SCT045 M06/M10 Q1007

Textaspár eru skrifaðar af vakthafandi veðurfræðingi á Veðurstofu Íslands.




Aðrir tengdir vefir



Þetta vefsvæði byggir á Eplica